Time;durP1;ratioP1;P1;durP2;ratioP2;P2;SDS_P1;SDS_P2;PMS_P1;PMS_P2;Temp;Humidity;BMP_temperature;BMP_pressure;BME280_temperature;BME280_humidity;BME280_pressure;Samples;Min_cycle;Max_cycle;Signal;HPM_P1;HPM_P2
2022/09/26 00:01:14;;;;;;;9.93;3.10;;;;;;;;;;5108153;28;20416;-69
2022/09/26 00:03:42;;;;;;;7.05;3.10;;;;;;;;;;5100289;28;20921;-70
2022/09/26 00:06:08;;;;;;;6.78;3.03;;;;;;;;;;5095819;28;20477;-70
2022/09/26 00:08:35;;;;;;;7.38;2.80;;;;;;;;;;5096251;28;20760;-70
2022/09/26 00:11:04;;;;;;;7.30;2.95;;;11.20;99.90;;;;;;5076209;28;20427;-71
2022/09/26 00:13:31;;;;;;;5.78;2.80;;;11.40;99.90;;;;;;5112945;28;20814;-71
2022/09/26 00:15:58;;;;;;;6.57;3.00;;;;;;;;;;5090526;28;20443;-71
2022/09/26 00:18:24;;;;;;;5.47;2.67;;;11.10;99.90;;;;;;5099222;28;20418;-71
2022/09/26 00:20:50;;;;;;;5.90;2.78;;;;;;;;;;5091081;28;20426;-71
2022/09/26 00:23:16;;;;;;;5.75;2.72;;;;;;;;;;5113953;28;20393;-71
2022/09/26 00:25:49;;;;;;;7.97;2.70;;;;;;;;;;5113012;28;20403;-71
2022/09/26 00:28:16;;;;;;;6.70;2.60;;;;;;;;;;5090220;28;20770;-71
2022/09/26 00:30:43;;;;;;;6.30;2.70;;;;;;;;;;5074736;28;20406;-71
2022/09/26 00:33:10;;;;;;;6.78;2.90;;;11.70;99.90;;;;;;5057087;28;20499;-71
2022/09/26 00:35:36;;;;;;;7.50;2.80;;;;;;;;;;5055030;28;20428;-71
2022/09/26 00:38:04;;;;;;;7.20;3.03;;;;;;;;;;5073951;28;20402;-71
2022/09/26 00:40:30;;;;;;;7.80;3.00;;;;;;;;;;5067096;28;20538;-70
2022/09/26 00:42:56;;;;;;;6.13;2.78;;;;;;;;;;5064835;28;20423;-70
2022/09/26 00:45:25;;;;;;;5.70;2.80;;;;;;;;;;5065789;28;20418;-70
2022/09/26 00:47:58;;;;;;;9.32;3.08;;;;;;;;;;5068749;28;20453;-70
2022/09/26 00:50:26;;;;;;;6.82;2.67;;;;;;;;;;5054654;28;20780;-71
2022/09/26 00:52:59;;;;;;;8.25;3.22;;;11.70;99.90;;;;;;5054960;28;20414;-70
2022/09/26 00:55:31;;;;;;;6.82;2.88;;;11.40;99.90;;;;;;5054716;28;20414;-70
2022/09/26 00:58:04;;;;;;;7.78;2.60;;;;;;;;;;5054383;28;20530;-70
2022/09/26 01:00:30;;;;;;;7.90;2.80;;;11.60;99.90;;;;;;5057578;28;20494;-70
2022/09/26 01:02:56;;;;;;;6.25;2.55;;;;;;;;;;5038191;28;20498;-70
2022/09/26 01:05:23;;;;;;;6.32;2.92;;;11.40;99.90;;;;;;5054388;28;20415;-71
2022/09/26 01:07:50;;;;;;;5.85;2.70;;;;;;;;;;5055636;28;20439;-71
2022/09/26 01:10:16;;;;;;;9.00;2.88;;;;;;;;;;5054998;28;20416;-70
2022/09/26 01:12:42;;;;;;;7.80;2.97;;;;;;;;;;5057545;28;20421;-70
2022/09/26 01:15:09;;;;;;;8.68;2.95;;;;;;;;;;5057070;28;20432;-70
2022/09/26 01:17:37;;;;;;;8.45;2.78;;;;;;;;;;5081251;28;20976;-70
2022/09/26 01:20:14;;;;;;;7.72;2.80;;;;;;;;;;5054267;28;20881;-70
2022/09/26 01:22:58;;;;;;;8.40;2.58;;;;;;;;;;5054820;28;20423;-71
2022/09/26 01:25:43;;;;;;;5.35;2.50;;;;;;;;;;5056626;28;20423;-71
2022/09/26 01:28:27;;;;;;;7.20;3.03;;;;;;;;;;5085788;28;20485;-70
2022/09/26 01:31:06;;;;;;;8.75;3.10;;;;;;;;;;5094414;28;20415;-70
2022/09/26 01:33:49;;;;;;;9.77;3.53;;;;;;;;;;5077785;28;20420;-70
2022/09/26 01:36:15;;;;;;;6.57;3.08;;;;;;;;;;5087751;28;20736;-70
2022/09/26 01:38:50;;;;;;;6.22;2.92;;;;;;;;;;5070762;28;20430;-70
2022/09/26 01:41:19;;;;;;;6.95;3.20;;;;;;;;;;5092355;28;21034;-70
2022/09/26 01:43:54;;;;;;;6.95;2.90;;;;;;;;;;5095519;28;20423;-70
2022/09/26 01:47:01;;;;;;;7.35;2.92;;;11.60;99.90;;;;;;5096243;27;20399;-70
2022/09/26 01:49:36;;;;;;;7.53;3.10;;;11.70;99.90;;;;;;5098653;27;20419;-70
2022/09/26 01:52:07;;;;;;;7.10;3.22;;;;;;;;;;5090415;28;20449;-71
2022/09/26 01:54:53;;;;;;;6.18;3.00;;;11.60;99.90;;;;;;5092063;28;20990;-71
2022/09/26 01:57:22;;;;;;;8.20;3.03;;;;;;;;;;5093685;28;20489;-70
2022/09/26 01:59:55;;;;;;;8.15;3.40;;;11.70;99.90;;;;;;5093326;28;20416;-71
2022/09/26 02:02:25;;;;;;;8.18;3.20;;;;;;;;;;5085956;28;20432;-71
2022/09/26 02:04:54;;;;;;;7.50;3.30;;;;;;;;;;5077043;28;20420;-70
2022/09/26 02:07:22;;;;;;;7.30;3.17;;;;;;;;;;5110222;27;20429;-71
2022/09/26 02:09:58;;;;;;;7.05;3.80;;;;;;;;;;5108869;27;20423;-70
2022/09/26 02:12:32;;;;;;;9.43;3.53;;;;;;;;;;5103196;27;20418;-70
2022/09/26 02:15:16;;;;;;;7.97;3.83;;;11.40;99.90;;;;;;5073464;28;20767;-70
2022/09/26 02:17:47;;;;;;;9.45;3.75;;;11.60;99.90;;;;;;5080281;28;20422;-70
2022/09/26 02:20:16;;;;;;;7.78;3.60;;;;;;;;;;5113028;27;20394;-70
2022/09/26 02:22:42;;;;;;;8.95;3.80;;;;;;;;;;5111014;28;20483;-70
2022/09/26 02:25:10;;;;;;;11.40;3.88;;;11.60;99.90;;;;;;5106313;28;20432;-70
2022/09/26 02:27:36;;;;;;;9.30;3.80;;;;;;;;;;5075251;28;20426;-70
2022/09/26 02:30:03;;;;;;;10.55;4.22;;;;;;;;;;5110154;28;20418;-71
2022/09/26 02:32:31;;;;;;;9.55;3.92;;;11.30;99.90;;;;;;5109542;28;20414;-70
2022/09/26 02:34:58;;;;;;;10.50;4.30;;;11.40;99.90;;;;;;5113709;28;20477;-70
2022/09/26 02:37:27;;;;;;;12.05;4.50;;;;;;;;;;5113771;28;20430;-70
2022/09/26 02:39:54;;;;;;;10.43;4.38;;;;;;;;;;5100485;28;20430;-70
2022/09/26 02:42:40;;;;;;;12.52;5.05;;;10.90;99.90;;;;;;5072951;28;20445;-71
2022/09/26 02:45:24;;;;;;;9.52;4.20;;;11.20;99.90;;;;;;5108555;28;20501;-71
2022/09/26 02:47:51;;;;;;;8.20;4.05;;;;;;;;;;5113072;28;20897;-71
2022/09/26 02:50:17;;;;;;;8.70;3.95;;;;;;;;;;5113409;28;20398;-70
2022/09/26 02:52:43;;;;;;;11.18;4.85;;;;;;;;;;5065739;28;20776;-71
2022/09/26 02:55:26;;;;;;;9.70;4.82;;;;;;;;;;5092779;27;20450;-71
2022/09/26 02:57:52;;;;;;;8.85;4.70;;;;;;;;;;5116528;27;20583;-72
2022/09/26 03:00:27;;;;;;;9.40;4.97;;;11.20;99.90;;;;;;5118178;27;20801;-71
2022/09/26 03:03:02;;;;;;;9.88;4.90;;;;;;;;;;5118010;27;20406;-71
2022/09/26 03:05:29;;;;;;;13.35;5.30;;;;;;;;;;5102947;27;20439;-71
2022/09/26 03:08:02;;;;;;;11.70;5.63;;;;;;;;;;5076808;28;20441;-70
2022/09/26 03:10:30;;;;;;;10.40;5.35;;;11.40;99.90;;;;;;5077047;28;20409;-71
2022/09/26 03:13:02;;;;;;;9.27;5.35;;;11.30;99.90;;;;;;5076854;28;20409;-71
2022/09/26 03:15:30;;;;;;;12.25;5.70;;;11.20;99.90;;;;;;5126350;27;20410;-71
2022/09/26 03:17:56;;;;;;;10.82;5.78;;;;;;;;;;5084279;28;20417;-72
2022/09/26 03:20:23;;;;;;;9.02;5.63;;;;;;;;;;5062718;27;20416;-72
2022/09/26 03:22:50;;;;;;;12.05;6.13;;;;;;;;;;5117322;27;20395;-72
2022/09/26 03:25:18;;;;;;;10.18;5.88;;;;;;;;;;5102588;27;20515;-72
2022/09/26 03:27:45;;;;;;;11.73;6.07;;;10.90;99.90;;;;;;5099201;27;20433;-71
2022/09/26 03:30:11;;;;;;;8.63;6.10;;;;;;;;;;5113642;27;20405;-71
2022/09/26 03:32:39;;;;;;;12.43;5.80;;;;;;;;;;5059776;28;20777;-75
2022/09/26 03:35:05;;;;;;;12.85;6.63;;;;;;;;;;5093658;28;20420;-76
2022/09/26 03:37:33;;;;;;;12.65;6.40;;;;;;;;;;5099713;28;20506;-76
2022/09/26 03:40:00;;;;;;;12.00;6.80;;;;;;;;;;5114605;28;20388;-75
2022/09/26 03:42:27;;;;;;;13.50;6.57;;;;;;;;;;5096485;27;20392;-76
2022/09/26 03:44:53;;;;;;;11.57;6.28;;;;;;;;;;5103754;28;20932;-76
2022/09/26 03:47:19;;;;;;;9.30;6.72;;;;;;;;;;5094705;28;20416;-75
2022/09/26 03:49:45;;;;;;;13.10;6.72;;;;;;;;;;5102830;27;20418;-75
2022/09/26 03:52:11;;;;;;;12.68;6.40;;;11.30;99.90;;;;;;5116939;27;20882;-76
2022/09/26 03:54:38;;;;;;;9.30;6.40;;;;;;;;;;5116721;27;20393;-76
2022/09/26 03:57:04;;;;;;;11.10;6.57;;;;;;;;;;5113827;27;20423;-76
2022/09/26 03:59:30;;;;;;;11.93;6.85;;;;;;;;;;5116521;27;20397;-76
2022/09/26 04:01:56;;;;;;;10.07;6.68;;;;;;;;;;5079036;28;20921;-76
2022/09/26 04:04:21;;;;;;;11.35;6.80;;;11.20;99.90;;;;;;5074986;28;20916;-76
2022/09/26 04:06:50;;;;;;;10.43;6.07;;;;;;;;;;5094823;27;20423;-76
2022/09/26 04:09:16;;;;;;;11.57;6.28;;;;;;;;;;5109954;27;20560;-76
2022/09/26 04:11:42;;;;;;;12.18;6.78;;;;;;;;;;5116496;27;20905;-76
2022/09/26 04:14:09;;;;;;;9.82;6.50;;;;;;;;;;5116621;27;20430;-75
2022/09/26 04:16:35;;;;;;;10.27;6.43;;;;;;;;;;5101932;27;20459;-75
2022/09/26 04:19:02;;;;;;;11.07;5.95;;;;;;;;;;5105719;28;20418;-75
2022/09/26 04:21:28;;;;;;;9.25;6.50;;;11.30;99.90;;;;;;5103645;27;20450;-76
2022/09/26 04:23:54;;;;;;;11.75;6.07;;;;;;;;;;5099245;27;20403;-75
2022/09/26 04:26:22;;;;;;;12.40;6.35;;;;;;;;;;5110762;28;20423;-76
2022/09/26 04:28:49;;;;;;;11.75;6.45;;;11.20;99.90;;;;;;5068961;27;20480;-76
2022/09/26 04:31:16;;;;;;;9.05;6.30;;;;;;;;;;5105156;28;20492;-76
2022/09/26 04:33:42;;;;;;;11.07;7.03;;;;;;;;;;5078593;28;20404;-76
2022/09/26 04:36:09;;;;;;;12.73;7.10;;;;;;;;;;5111422;27;20419;-76
2022/09/26 04:38:36;;;;;;;11.32;7.07;;;;;;;;;;5093488;27;20424;-76
2022/09/26 04:41:03;;;;;;;13.05;7.88;;;;;;;;;;5086502;27;20418;-76
2022/09/26 04:43:29;;;;;;;12.60;7.30;;;;;;;;;;5093874;28;20425;-76
2022/09/26 04:45:55;;;;;;;15.68;8.30;;;;;;;;;;5107047;27;20979;-76
2022/09/26 04:48:21;;;;;;;15.40;8.80;;;;;;;;;;5134031;27;20831;-77
2022/09/26 04:50:47;;;;;;;12.30;7.82;;;;;;;;;;5113313;27;20496;-78
2022/09/26 04:53:13;;;;;;;12.17;7.67;;;;;;;;;;5057278;28;20428;-77
2022/09/26 04:55:43;;;;;;;13.07;7.50;;;11.00;99.90;;;;;;5078671;28;20401;-77
2022/09/26 04:58:09;;;;;;;10.43;7.60;;;10.60;99.90;;;;;;5102302;27;20434;-77
2022/09/26 05:00:35;;;;;;;13.88;8.60;;;;;;;;;;5088236;27;20890;-76
2022/09/26 05:03:01;;;;;;;14.55;8.70;;;;;;;;;;5115619;27;20455;-75
2022/09/26 05:05:31;;;;;;;12.73;8.30;;;;;;;;;;5094772;27;20437;-76
2022/09/26 05:07:57;;;;;;;12.67;8.27;;;;;;;;;;5113264;27;20493;-76
2022/09/26 05:10:24;;;;;;;12.38;8.75;;;;;;;;;;5088262;28;20444;-76
2022/09/26 05:12:50;;;;;;;13.38;8.65;;;;;;;;;;5093582;27;20963;-76
2022/09/26 05:15:16;;;;;;;13.82;8.80;;;;;;;;;;5083008;28;20908;-75
2022/09/26 05:17:44;;;;;;;13.05;8.02;;;;;;;;;;5084576;28;20426;-76
2022/09/26 05:20:10;;;;;;;12.77;8.65;;;;;;;;;;5098367;27;20441;-76
2022/09/26 05:22:36;;;;;;;11.05;7.93;;;;;;;;;;5087086;28;20430;-75
2022/09/26 05:27:51;;;;;;;14.60;8.10;;;;;;;;;;5106204;28;20470;-76
2022/09/26 05:30:18;;;;;;;13.15;8.80;;;;;;;;;;5081889;28;20420;-76
2022/09/26 05:32:47;;;;;;;13.80;8.10;;;;;;;;;;5088036;27;20816;-75
2022/09/26 05:35:13;;;;;;;11.63;7.77;;;;;;;;;;5093283;27;20426;-76
2022/09/26 05:37:39;;;;;;;13.65;7.95;;;;;;;;;;5101014;28;20448;-75
2022/09/26 05:42:50;;;;;;;14.82;7.55;;;;;;;;;;5073831;28;20421;-76
2022/09/26 05:45:16;;;;;;;10.88;7.88;;;;;;;;;;5111209;27;20421;-76
2022/09/26 05:47:42;;;;;;;12.27;7.90;;;;;;;;;;5111232;28;20404;-76
2022/09/26 05:50:09;;;;;;;11.00;7.45;;;;;;;;;;5074391;28;20409;-76
2022/09/26 05:52:38;;;;;;;11.65;7.65;;;10.90;99.90;;;;;;5101689;28;20916;-76
2022/09/26 05:55:04;;;;;;;13.32;7.97;;;;;;;;;;5081973;28;21090;-76
2022/09/26 05:57:30;;;;;;;12.05;7.55;;;;;;;;;;5086166;28;21457;-76
2022/09/26 05:59:57;;;;;;;12.47;7.50;;;;;;;;;;5093814;28;20400;-76
2022/09/26 06:02:23;;;;;;;10.88;7.65;;;;;;;;;;5106524;27;20414;-72
2022/09/26 06:04:49;;;;;;;11.55;7.47;;;;;;;;;;5094666;27;22043;-72
2022/09/26 06:07:15;;;;;;;11.30;7.65;;;;;;;;;;5083889;28;20428;-73
2022/09/26 06:09:41;;;;;;;12.70;8.07;;;;;;;;;;5095164;28;20514;-72
2022/09/26 06:12:07;;;;;;;11.43;7.63;;;;;;;;;;5099931;27;20422;-72
2022/09/26 06:14:33;;;;;;;13.98;8.32;;;;;;;;;;5097094;27;20752;-73
2022/09/26 06:16:59;;;;;;;11.80;7.30;;;;;;;;;;5111097;27;20422;-73
2022/09/26 06:19:25;;;;;;;14.15;7.93;;;;;;;;;;5097639;28;20420;-73
2022/09/26 06:21:51;;;;;;;12.93;7.95;;;;;;;;;;5103457;27;20428;-73
2022/09/26 06:24:18;;;;;;;10.82;7.55;;;;;;;;;;5107842;28;20455;-73
2022/09/26 06:26:44;;;;;;;14.93;8.73;;;;;;;;;;5100950;28;20477;-73
2022/09/26 06:29:10;;;;;;;12.70;8.05;;;;;;;;;;5090439;28;20432;-72
2022/09/26 06:31:36;;;;;;;16.05;7.78;;;;;;;;;;5082253;28;20431;-73
2022/09/26 06:34:04;;;;;;;16.92;7.72;;;;;;;;;;5094785;28;20412;-73
2022/09/26 06:36:30;;;;;;;12.82;7.68;;;;;;;;;;5087608;28;20422;-73
2022/09/26 06:38:56;;;;;;;11.82;7.63;;;;;;;;;;5089085;28;20473;-73
2022/09/26 06:41:24;;;;;;;11.60;6.60;;;;;;;;;;5095704;28;20410;-73
2022/09/26 06:43:50;;;;;;;10.35;6.85;;;;;;;;;;5103314;28;20426;-73
2022/09/26 06:46:16;;;;;;;12.10;7.28;;;;;;;;;;5077907;28;21008;-73
2022/09/26 06:48:42;;;;;;;12.15;7.25;;;;;;;;;;5108746;28;20479;-73
2022/09/26 06:51:12;;;;;;;11.73;7.25;;;;;;;;;;5075130;28;20425;-73
2022/09/26 06:53:38;;;;;;;11.65;7.28;;;;;;;;;;5102120;28;20418;-73
2022/09/26 06:56:04;;;;;;;10.95;7.05;;;;;;;;;;5110909;28;20415;-74
2022/09/26 06:58:31;;;;;;;11.97;6.90;;;;;;;;;;5063038;28;20404;-73
2022/09/26 07:01:00;;;;;;;13.82;6.88;;;;;;;;;;5106914;28;20478;-74
2022/09/26 07:03:27;;;;;;;11.20;7.25;;;;;;;;;;5102684;28;20413;-74
2022/09/26 07:05:57;;;;;;;13.02;6.75;;;;;;;;;;5096827;28;20406;-73
2022/09/26 07:08:24;;;;;;;11.65;6.55;;;;;;;;;;5092310;28;20464;-73
2022/09/26 07:10:50;;;;;;;11.80;6.70;;;;;;;;;;5104782;28;20845;-73
2022/09/26 07:13:16;;;;;;;9.85;6.38;;;;;;;;;;5087774;28;20412;-74
2022/09/26 07:15:46;;;;;;;9.85;5.97;;;10.60;99.90;;;;;;5082356;28;20437;-73
2022/09/26 07:18:12;;;;;;;9.35;6.00;;;10.60;99.90;;;;;;5068037;28;20424;-74
2022/09/26 07:20:39;;;;;;;12.77;6.40;;;10.80;99.90;;;;;;5105414;28;20414;-74
2022/09/26 07:23:10;;;;;;;9.85;5.85;;;;;;;;;;5099851;28;20511;-73
2022/09/26 07:25:38;;;;;;;8.93;5.63;;;;;;;;;;5082961;28;20481;-73
2022/09/26 07:28:04;;;;;;;9.77;5.68;;;;;;;;;;5099054;28;20502;-74
2022/09/26 07:30:30;;;;;;;11.15;5.88;;;;;;;;;;5093830;28;20428;-74
2022/09/26 07:33:02;;;;;;;9.32;5.25;;;;;;;;;;5103301;28;20422;-74
2022/09/26 07:35:29;;;;;;;12.10;5.40;;;;;;;;;;5097810;28;20431;-73
2022/09/26 07:37:56;;;;;;;8.77;5.38;;;;;;;;;;5084501;28;20432;-73
2022/09/26 07:40:22;;;;;;;10.68;5.13;;;;;;;;;;5084223;28;20428;-73
2022/09/26 07:42:50;;;;;;;8.95;5.30;;;;;;;;;;5101984;27;20430;-73
2022/09/26 07:45:16;;;;;;;9.57;4.60;;;;;;;;;;5095282;27;20959;-73
2022/09/26 07:50:27;;;;;;;12.45;5.07;;;;;;;;;;5102459;27;20438;-73
2022/09/26 07:52:53;;;;;;;10.07;4.82;;;;;;;;;;5101920;27;20423;-73
2022/09/26 07:55:25;;;;;;;8.20;4.90;;;11.10;99.90;;;;;;5090682;27;20917;-73
2022/09/26 07:57:51;;;;;;;8.23;4.55;;;;;;;;;;5102513;27;20987;-73
2022/09/26 08:00:20;;;;;;;7.10;4.35;;;11.20;99.90;;;;;;5099692;27;20416;-73
2022/09/26 08:02:46;;;;;;;10.82;5.00;;;;;;;;;;5090306;27;20419;-74
2022/09/26 08:05:18;;;;;;;10.13;4.63;;;11.20;99.90;;;;;;5094878;28;20416;-73
2022/09/26 08:07:45;;;;;;;8.15;4.45;;;;;;;;;;5097495;28;20425;-73
2022/09/26 08:10:19;;;;;;;8.67;4.33;;;11.20;99.90;;;;;;5108353;27;20418;-74
2022/09/26 08:12:46;;;;;;;8.18;4.55;;;;;;;;;;5095666;27;20406;-71
2022/09/26 08:15:12;;;;;;;12.57;4.70;;;;;;;;;;5089273;27;20421;-72
2022/09/26 08:17:38;;;;;;;6.80;4.15;;;;;;;;;;5079140;27;20506;-73
2022/09/26 08:20:05;;;;;;;7.78;4.05;;;;;;;;;;5087310;28;20471;-72
2022/09/26 08:22:31;;;;;;;9.18;4.38;;;;;;;;;;5070960;28;20408;-72
2022/09/26 08:24:57;;;;;;;9.15;4.20;;;;;;;;;;5095421;28;20895;-73
2022/09/26 08:27:23;;;;;;;7.63;4.30;;;;;;;;;;5078520;28;20416;-72
2022/09/26 08:29:52;;;;;;;6.85;4.30;;;;;;;;;;5100269;27;20842;-72
2022/09/26 08:32:18;;;;;;;8.85;4.32;;;;;;;;;;5109838;28;20434;-72
2022/09/26 08:34:45;;;;;;;6.88;3.88;;;;;;;;;;5094762;28;20404;-72
2022/09/26 08:37:12;;;;;;;8.32;4.18;;;;;;;;;;5089653;28;20971;-72
2022/09/26 08:39:38;;;;;;;9.40;4.30;;;;;;;;;;5082663;27;20521;-72
2022/09/26 08:42:04;;;;;;;6.93;4.00;;;;;;;;;;5110050;27;20422;-72
2022/09/26 08:44:40;;;;;;;8.05;4.10;;;;;;;;;;5115722;27;20409;-72
2022/09/26 08:47:20;;;;;;;8.45;3.97;;;;;;;;;;5099238;28;20418;-72
2022/09/26 08:49:47;;;;;;;6.55;4.05;;;;;;;;;;5088189;28;20425;-72
2022/09/26 08:52:20;;;;;;;10.37;4.47;;;;;;;;;;5106211;27;20489;-72
2022/09/26 08:54:46;;;;;;;6.97;4.22;;;;;;;;;;5113105;27;20423;-72
2022/09/26 08:57:12;;;;;;;7.20;3.70;;;;;;;;;;5096041;27;20426;-76
2022/09/26 08:59:41;;;;;;;10.15;3.97;;;;;;;;;;5084632;28;20418;-75
2022/09/26 09:02:52;;;;;;;9.10;4.00;;;11.70;99.90;;;;;;5090038;28;20498;-76
2022/09/26 09:05:26;;;;;;;9.52;4.30;;;;;;;;;;5081931;28;20880;-76
2022/09/26 09:07:56;;;;;;;7.47;3.85;;;11.80;99.90;;;;;;5105820;27;20426;-75
2022/09/26 09:10:38;;;;;;;7.85;3.90;;;11.60;99.90;;;;;;5098396;28;20428;-75
2022/09/26 09:13:24;;;;;;;7.28;3.95;;;;;;;;;;5125134;27;20426;-75
2022/09/26 09:16:19;;;;;;;8.27;4.20;;;12.10;99.90;;;;;;5113360;27;20409;-76
2022/09/26 09:19:04;;;;;;;7.73;4.00;;;;;;;;;;5081248;27;21392;-76
2022/09/26 09:21:39;;;;;;;8.05;4.10;;;;;;;;;;5101305;27;20766;-75
2022/09/26 09:24:06;;;;;;;7.97;3.97;;;;;;;;;;5072798;28;20412;-75
2022/09/26 09:26:35;;;;;;;7.63;3.92;;;;;;;;;;5093573;28;20427;-75
2022/09/26 09:29:04;;;;;;;8.55;3.83;;;;;;;;;;5098314;27;20430;-75
2022/09/26 09:31:34;;;;;;;8.88;4.35;;;;;;;;;;5090602;28;20424;-75
2022/09/26 09:34:05;;;;;;;8.70;3.85;;;12.20;99.90;;;;;;5079894;28;20925;-76
2022/09/26 09:36:31;;;;;;;7.30;4.00;;;;;;;;;;5085054;28;20492;-75
2022/09/26 09:39:03;;;;;;;8.13;4.20;;;12.10;99.90;;;;;;5094328;28;20964;-76
2022/09/26 09:41:39;;;;;;;8.70;4.00;;;;;;;;;;5076347;27;20416;-75
2022/09/26 09:44:10;;;;;;;10.48;4.65;;;;;;;;;;5073996;28;20892;-76
2022/09/26 09:46:41;;;;;;;8.15;4.55;;;;;;;;;;5082011;28;20425;-75
2022/09/26 09:49:07;;;;;;;10.50;4.63;;;;;;;;;;5087911;28;20427;-76
2022/09/26 09:51:52;;;;;;;8.52;4.65;;;;;;;;;;5077639;28;20400;-76
2022/09/26 09:54:18;;;;;;;11.40;5.43;;;;;;;;;;5092149;28;20498;-76
2022/09/26 09:57:05;;;;;;;9.80;5.20;;;;;;;;;;5090538;27;20765;-76
2022/09/26 09:59:34;;;;;;;10.03;6.27;;;;;;;;;;5087843;27;20416;-75
2022/09/26 10:02:21;;;;;;;11.00;6.32;;;;;;;;;;5088302;28;20551;-76
2022/09/26 10:04:57;;;;;;;11.07;5.55;;;12.00;99.90;;;;;;5108284;27;20506;-76
2022/09/26 10:07:23;;;;;;;10.15;6.10;;;;;;;;;;5097937;28;20423;-75
2022/09/26 10:09:50;;;;;;;10.25;6.65;;;;;;;;;;5074871;28;20436;-76
2022/09/26 10:12:18;;;;;;;15.10;7.13;;;;;;;;;;5077080;28;20491;-75
2022/09/26 10:14:47;;;;;;;13.65;6.78;;;;;;;;;;5105845;27;20747;-76
2022/09/26 10:17:14;;;;;;;11.63;7.20;;;;;;;;;;5098722;28;20423;-76
2022/09/26 10:19:43;;;;;;;10.63;6.28;;;;;;;;;;5098151;28;20495;-76
2022/09/26 10:22:41;;;;;;;12.50;6.87;;;;;;;;;;5097349;27;20449;-77
2022/09/26 10:25:20;;;;;;;10.87;7.20;;;11.50;99.90;;;;;;5086652;28;20456;-77
2022/09/26 10:27:50;;;;;;;14.48;7.97;;;;;;;;;;5111798;28;20810;-77
2022/09/26 10:30:19;;;;;;;11.45;7.40;;;;;;;;;;5102938;28;20430;-76
2022/09/26 10:32:46;;;;;;;15.73;7.93;;;;;;;;;;5072754;28;20423;-76
2022/09/26 10:35:19;;;;;;;11.88;7.80;;;;;;;;;;5075599;28;20416;-77
2022/09/26 10:37:56;;;;;;;12.10;8.50;;;;;;;;;;5102972;28;20423;-78
2022/09/26 10:40:44;;;;;;;13.93;8.43;;;;;;;;;;5096735;28;20909;-78
2022/09/26 10:43:16;;;;;;;14.85;8.77;;;;;;;;;;5057543;28;20779;-78
2022/09/26 10:45:42;;;;;;;13.60;8.73;;;;;;;;;;5069718;28;20415;-78
2022/09/26 10:48:17;;;;;;;13.45;8.20;;;11.00;99.90;;;;;;5053833;28;20403;-77
2022/09/26 10:50:50;;;;;;;14.80;8.90;;;11.50;99.90;;;;;;5083088;28;20503;-77
2022/09/26 10:53:18;;;;;;;15.25;9.18;;;11.40;99.90;;;;;;5089642;28;20401;-78
2022/09/26 10:55:50;;;;;;;15.50;9.20;;;;;;;;;;5112730;28;20469;-77
2022/09/26 10:58:17;;;;;;;16.55;9.15;;;;;;;;;;5086719;28;20437;-77
2022/09/26 11:00:44;;;;;;;13.88;9.10;;;;;;;;;;5089994;28;20900;-78
2022/09/26 11:03:12;;;;;;;12.77;8.63;;;;;;;;;;5071727;28;20398;-78
2022/09/26 11:05:55;;;;;;;12.50;8.50;;;;;;;;;;5081436;28;20437;-77
2022/09/26 11:08:22;;;;;;;12.48;8.40;;;;;;;;;;5085969;28;20418;-79
2022/09/26 11:10:48;;;;;;;11.82;7.95;;;;;;;;;;5098067;28;20500;-77
2022/09/26 11:13:18;;;;;;;10.35;7.40;;;;;;;;;;5075221;28;20913;-77
2022/09/26 11:16:01;;;;;;;10.50;7.68;;;11.60;99.90;;;;;;5086195;28;20481;-76
2022/09/26 11:18:40;;;;;;;10.30;7.50;;;11.70;99.90;;;;;;5091656;28;20505;-76
2022/09/26 11:21:32;;;;;;;10.70;7.68;;;11.70;99.90;;;;;;5087757;28;20811;-76
2022/09/26 11:24:05;;;;;;;10.50;7.37;;;;;;;;;;5091649;28;20416;-76
2022/09/26 11:26:48;;;;;;;10.18;7.03;;;11.90;99.90;;;;;;5094392;28;20412;-77
2022/09/26 11:29:15;;;;;;;10.13;6.50;;;;;;;;;;5111174;27;20410;-77
2022/09/26 11:31:42;;;;;;;9.15;7.30;;;;;;;;;;5128012;27;20425;-77
2022/09/26 11:34:16;;;;;;;9.75;7.00;;;11.80;99.90;;;;;;5098753;27;20418;-77
2022/09/26 11:37:02;;;;;;;10.30;7.38;;;;;;;;;;5074630;28;20513;-76
2022/09/26 11:39:34;;;;;;;11.40;7.85;;;;;;;;;;5095162;28;20942;-76
2022/09/26 11:42:12;;;;;;;12.18;7.97;;;;;;;;;;5097262;28;20428;-76
2022/09/26 11:44:41;;;;;;;9.63;7.73;;;;;;;;;;5093156;27;20438;-76
2022/09/26 11:47:15;;;;;;;10.07;7.90;;;;;;;;;;5084651;27;20426;-76
2022/09/26 11:49:41;;;;;;;14.05;8.52;;;;;;;;;;5084178;27;20410;-76
2022/09/26 11:52:13;;;;;;;12.23;8.27;;;;;;;;;;5093197;28;20910;-77
2022/09/26 11:54:45;;;;;;;12.32;8.35;;;;;;;;;;5093920;28;20416;-77
2022/09/26 11:57:11;;;;;;;9.88;8.00;;;;;;;;;;5096515;28;20425;-75
2022/09/26 11:59:40;;;;;;;11.95;8.30;;;;;;;;;;5107341;28;20908;-73
2022/09/26 12:02:18;;;;;;;10.50;8.15;;;;;;;;;;5093086;27;20463;-72
2022/09/26 12:04:54;;;;;;;10.67;8.40;;;;;;;;;;5093229;27;20422;-73
2022/09/26 12:07:23;;;;;;;12.38;8.10;;;;;;;;;;5103049;28;20423;-72
2022/09/26 12:10:08;;;;;;;11.70;7.90;;;11.60;99.90;;;;;;5105720;27;20434;-73
2022/09/26 12:12:41;;;;;;;9.35;7.65;;;;;;;;;;5085303;28;20447;-73
2022/09/26 12:15:07;;;;;;;9.57;7.93;;;;;;;;;;5106830;27;20514;-73
2022/09/26 12:17:39;;;;;;;12.45;9.32;;;;;;;;;;5101391;27;20816;-73
2022/09/26 12:20:26;;;;;;;10.32;8.18;;;;;;;;;;5081378;27;20413;-73
2022/09/26 12:23:09;;;;;;;9.83;7.50;;;;;;;;;;5115263;27;20452;-75
2022/09/26 12:26:02;;;;;;;10.55;7.72;;;;;;;;;;5093979;28;20422;-74
2022/09/26 12:28:56;;;;;;;11.55;8.07;;;12.20;99.90;;;;;;5072171;28;20433;-74
2022/09/26 12:31:30;;;;;;;11.75;8.30;;;;;;;;;;5098089;28;20775;-74
2022/09/26 12:33:57;;;;;;;9.50;7.10;;;;;;;;;;5096143;28;20424;-73
2022/09/26 12:36:30;;;;;;;10.63;7.80;;;;;;;;;;5080155;28;20481;-75
2022/09/26 12:38:59;;;;;;;10.55;8.05;;;;;;;;;;5103038;28;20429;-73
2022/09/26 12:41:34;;;;;;;10.48;8.68;;;;;;;;;;5101459;28;20413;-73
2022/09/26 12:44:00;;;;;;;11.90;8.65;;;;;;;;;;5112658;28;20404;-74
2022/09/26 12:46:29;;;;;;;11.35;8.48;;;;;;;;;;5085073;28;20410;-74
2022/09/26 12:49:00;;;;;;;10.75;7.80;;;;;;;;;;5077621;28;20552;-74
2022/09/26 12:51:37;;;;;;;10.70;8.23;;;;;;;;;;5092027;28;20425;-74
2022/09/26 12:54:06;;;;;;;10.45;8.75;;;;;;;;;;5066391;28;20473;-73
2022/09/26 12:56:42;;;;;;;11.25;7.13;;;;;;;;;;5078717;28;20430;-74
2022/09/26 12:59:09;;;;;;;10.45;7.57;;;;;;;;;;5068135;28;20418;-73
2022/09/26 13:01:46;;;;;;;8.73;7.30;;;;;;;;;;5104273;28;20466;-74
2022/09/26 13:04:24;;;;;;;8.65;6.07;;;;;;;;;;5105191;28;20911;-73
2022/09/26 13:06:54;;;;;;;7.80;6.60;;;;;;;;;;5083903;28;20446;-73
2022/09/26 13:09:20;;;;;;;10.55;6.85;;;;;;;;;;5091581;28;20762;-74
2022/09/26 13:12:05;;;;;;;10.43;6.40;;;;;;;;;;5071557;28;20432;-74
2022/09/26 13:14:43;;;;;;;8.20;6.40;;;;;;;;;;5075082;28;20913;-74
2022/09/26 13:17:15;;;;;;;7.85;6.07;;;;;;;;;;5084301;28;20420;-73
2022/09/26 13:19:50;;;;;;;7.27;5.80;;;;;;;;;;5079520;28;20412;-73
2022/09/26 13:22:37;;;;;;;7.65;5.85;;;;;;;;;;5088895;28;20506;-73
2022/09/26 13:25:17;;;;;;;7.15;5.72;;;12.50;99.90;;;;;;5080291;28;20526;-73
2022/09/26 13:27:53;;;;;;;6.15;5.00;;;;;;;;;;5084350;28;20431;-74
2022/09/26 13:30:34;;;;;;;7.27;5.60;;;12.60;99.90;;;;;;5063257;28;20426;-73
2022/09/26 13:33:19;;;;;;;6.63;5.40;;;13.10;99.90;;;;;;5069420;28;20449;-73
2022/09/26 13:35:46;;;;;;;7.03;5.35;;;;;;;;;;5080211;28;20989;-74
2022/09/26 13:38:21;;;;;;;6.33;5.50;;;;;;;;;;5063618;28;20418;-73
2022/09/26 13:41:14;;;;;;;7.45;6.07;;;12.90;99.90;;;;;;5069828;28;20932;-73
2022/09/26 13:44:02;;;;;;;7.50;6.00;;;12.80;99.90;;;;;;5064912;28;20414;-73
2022/09/26 13:46:48;;;;;;;6.75;5.82;;;;;;;;;;5060667;28;20433;-74
2022/09/26 13:49:17;;;;;;;11.02;6.68;;;;;;;;;;5056661;28;20423;-74
2022/09/26 13:51:50;;;;;;;14.60;7.80;;;;;;;;;;5056835;28;20552;-74
2022/09/26 13:54:55;;;;;;;26.83;8.70;;;12.70;99.90;;;;;;5047858;28;20924;-73
2022/09/26 13:58:03;;;;;;;20.50;8.85;;;12.40;99.90;;;;;;5025031;28;20422;-73
2022/09/26 14:00:29;;;;;;;21.63;17.75;;;;;;;;;;5050233;28;20429;-73
2022/09/26 14:03:16;;;;;;;12.30;8.43;;;;;;;;;;5048525;28;20520;-73
2022/09/26 14:05:51;;;;;;;13.73;9.10;;;;;;;;;;5079718;28;20471;-73
2022/09/26 14:11:27;;;;;;;11.05;8.50;;;;;;;;;;5076743;28;20483;-73
2022/09/26 14:14:17;;;;;;;13.40;8.95;;;;;;;;;;5078337;28;20444;-73
2022/09/26 14:16:43;;;;;;;15.40;10.50;;;;;;;;;;5042254;28;20452;-72
2022/09/26 14:19:16;;;;;;;12.68;9.60;;;12.80;99.90;;;;;;5067589;28;20414;-72
2022/09/26 14:22:01;;;;;;;13.32;8.65;;;;;;;;;;5063774;28;20484;-73
2022/09/26 14:24:28;;;;;;;11.95;7.90;;;;;;;;;;5052960;28;20414;-72
2022/09/26 14:27:02;;;;;;;9.48;6.97;;;;;;;;;;5063719;28;20430;-72
2022/09/26 14:29:28;;;;;;;10.00;6.60;;;;;;;;;;5040229;28;20464;-72
2022/09/26 14:32:00;;;;;;;10.35;6.95;;;;;;;;;;5058652;28;20400;-72
2022/09/26 14:34:29;;;;;;;8.90;6.60;;;;;;;;;;5065183;28;20926;-72
2022/09/26 14:37:00;;;;;;;9.82;6.50;;;13.40;99.90;;;;;;5067117;28;20481;-72
2022/09/26 14:39:30;;;;;;;10.27;7.13;;;;;;;;;;5054250;28;20817;-72
2022/09/26 14:41:57;;;;;;;10.80;7.35;;;;;;;;;;5060003;28;20414;-72
2022/09/26 14:44:24;;;;;;;11.38;7.25;;;;;;;;;;5071155;28;20449;-72